createdAt,value
2023-07-29T00:01:59.374Z,4.35
2023-07-29T00:04:26.712Z,5.68
2023-07-29T00:06:53.981Z,5.40
2023-07-29T00:09:21.177Z,4.50
2023-07-29T00:11:48.346Z,4.68
2023-07-29T00:14:15.516Z,4.53
2023-07-29T00:16:43.922Z,4.38
2023-07-29T00:19:11.152Z,4.50
2023-07-29T00:21:38.676Z,4.70
2023-07-29T00:24:06.047Z,4.65
2023-07-29T00:26:33.676Z,5.47
2023-07-29T00:29:00.841Z,5.07
2023-07-29T00:31:27.805Z,4.50
2023-07-29T00:33:55.130Z,4.40
2023-07-29T00:36:22.346Z,4.53
2023-07-29T00:38:49.549Z,3.88
2023-07-29T00:41:16.996Z,4.07
2023-07-29T00:43:44.182Z,4.22
2023-07-29T00:46:14.041Z,4.30
2023-07-29T00:48:41.506Z,4.55
2023-07-29T00:51:09.026Z,4.57
2023-07-29T00:53:36.353Z,4.45
2023-07-29T00:56:03.633Z,4.72
2023-07-29T00:58:30.431Z,4.18
2023-07-29T01:00:58.072Z,4.85
2023-07-29T01:03:24.981Z,4.65
2023-07-29T01:06:24.751Z,5.00
2023-07-29T01:09:04.003Z,4.60
2023-07-29T01:12:23.230Z,4.60
2023-07-29T01:15:03.413Z,4.70
2023-07-29T01:17:37.078Z,4.80
2023-07-29T01:22:43.140Z,4.10
2023-07-29T01:25:10.326Z,4.45
2023-07-29T01:27:37.074Z,4.43
2023-07-29T01:30:05.447Z,4.80
2023-07-29T01:32:54.499Z,5.03
2023-07-29T01:36:04.219Z,4.68
2023-07-29T01:38:36.044Z,4.68
2023-07-29T01:41:04.418Z,4.97
2023-07-29T01:43:32.607Z,5.13
2023-07-29T01:46:01.127Z,4.63
2023-07-29T01:48:31.505Z,4.80
2023-07-29T01:50:58.820Z,5.00
2023-07-29T01:53:26.060Z,5.85
2023-07-29T01:55:53.367Z,5.75
2023-07-29T01:58:20.574Z,5.63
2023-07-29T02:00:47.795Z,5.63
2023-07-29T02:03:15.188Z,5.63
2023-07-29T02:05:44.677Z,6.13
2023-07-29T02:08:12.129Z,6.28
2023-07-29T02:10:39.498Z,5.57
2023-07-29T02:13:06.728Z,5.47
2023-07-29T02:15:33.899Z,5.32
2023-07-29T02:18:02.470Z,5.97
2023-07-29T02:20:29.271Z,6.05
2023-07-29T02:22:56.448Z,5.28
2023-07-29T02:25:23.668Z,6.32
2023-07-29T02:27:50.872Z,6.75
2023-07-29T02:30:18.106Z,6.78
2023-07-29T02:32:45.105Z,6.55
2023-07-29T02:35:12.879Z,6.13
2023-07-29T02:37:40.112Z,6.30
2023-07-29T02:40:07.780Z,5.63
2023-07-29T02:42:34.568Z,5.90
2023-07-29T02:45:01.754Z,6.03
2023-07-29T02:47:28.995Z,4.97
2023-07-29T02:49:56.327Z,5.68
2023-07-29T02:52:23.120Z,5.60
2023-07-29T02:54:50.349Z,5.60
2023-07-29T02:57:18.497Z,4.68
2023-07-29T02:59:46.400Z,5.32
2023-07-29T03:02:13.209Z,5.18
2023-07-29T03:04:40.383Z,5.20
2023-07-29T03:07:07.599Z,5.50
2023-07-29T03:09:35.176Z,4.88
2023-07-29T03:12:02.340Z,5.00
2023-07-29T03:14:29.129Z,5.05
2023-07-29T03:16:56.366Z,5.15
2023-07-29T03:19:23.564Z,4.95
2023-07-29T03:21:51.058Z,5.10
2023-07-29T03:24:18.275Z,5.10
2023-07-29T03:26:46.843Z,4.55
2023-07-29T03:29:14.165Z,4.88
2023-07-29T03:31:41.369Z,4.53
2023-07-29T03:34:08.571Z,4.85
2023-07-29T03:36:36.038Z,5.18
2023-07-29T03:39:05.281Z,5.18
2023-07-29T03:41:32.440Z,5.25
2023-07-29T03:43:59.581Z,5.72
2023-07-29T03:46:27.013Z,5.43
2023-07-29T03:48:54.205Z,5.47
2023-07-29T03:51:21.942Z,5.55
2023-07-29T03:53:48.704Z,5.13
2023-07-29T03:56:15.893Z,5.28
2023-07-29T03:58:44.829Z,5.38
2023-07-29T04:01:11.658Z,5.00
2023-07-29T04:03:38.908Z,5.35
2023-07-29T04:06:06.163Z,4.82
2023-07-29T04:08:33.367Z,4.90
2023-07-29T04:11:00.556Z,4.65
2023-07-29T04:13:27.412Z,5.05
2023-07-29T04:15:54.646Z,4.57
2023-07-29T04:18:21.473Z,4.75
2023-07-29T04:20:48.645Z,4.28
2023-07-29T04:23:15.422Z,5.13
2023-07-29T04:25:42.556Z,4.57
2023-07-29T04:28:09.754Z,4.53
2023-07-29T04:30:37.021Z,4.70
2023-07-29T04:33:04.681Z,4.63
2023-07-29T04:35:31.506Z,4.80
2023-07-29T04:37:58.686Z,4.43
2023-07-29T04:40:25.480Z,4.57
2023-07-29T04:42:52.874Z,4.38
2023-07-29T04:45:20.149Z,4.13
2023-07-29T04:47:47.457Z,4.47
2023-07-29T04:50:14.663Z,4.80
2023-07-29T04:52:41.905Z,4.65
2023-07-29T04:55:08.883Z,5.10
2023-07-29T04:57:35.652Z,4.97
2023-07-29T05:00:03.902Z,4.57
2023-07-29T05:02:30.717Z,4.70
2023-07-29T05:04:57.969Z,4.38
2023-07-29T05:07:24.832Z,4.45
2023-07-29T05:09:51.630Z,4.50
2023-07-29T05:12:18.367Z,4.35
2023-07-29T05:14:45.333Z,4.50
2023-07-29T05:17:12.551Z,4.35
2023-07-29T05:19:39.712Z,4.55
2023-07-29T05:22:07.012Z,4.43
2023-07-29T05:24:34.178Z,4.38
2023-07-29T05:27:01.377Z,4.95
2023-07-29T05:29:28.597Z,4.50
2023-07-29T05:31:55.354Z,4.93
2023-07-29T05:34:22.574Z,4.85
2023-07-29T05:36:49.754Z,5.05
2023-07-29T05:39:16.544Z,4.10
2023-07-29T05:41:43.280Z,4.25
2023-07-29T05:44:10.998Z,4.32
2023-07-29T05:46:38.466Z,3.72
2023-07-29T05:49:05.462Z,4.25
2023-07-29T05:51:33.716Z,3.78
2023-07-29T05:54:00.908Z,3.58
2023-07-29T05:56:28.094Z,3.53
2023-07-29T05:58:55.278Z,3.65
2023-07-29T06:01:22.933Z,3.92
2023-07-29T06:03:50.436Z,3.75
2023-07-29T06:06:17.690Z,3.88
2023-07-29T06:08:44.915Z,4.10
2023-07-29T06:11:12.076Z,3.47
2023-07-29T06:13:39.276Z,4.05
2023-07-29T06:16:06.434Z,3.42
2023-07-29T06:18:33.592Z,3.63
2023-07-29T06:21:00.438Z,3.60
2023-07-29T06:23:27.251Z,3.17
2023-07-29T06:25:54.443Z,3.17
2023-07-29T06:28:21.278Z,3.42
2023-07-29T06:30:48.490Z,3.35
2023-07-29T06:33:15.697Z,3.13
2023-07-29T06:35:43.065Z,3.17
2023-07-29T06:38:10.412Z,3.30
2023-07-29T06:40:37.165Z,3.47
2023-07-29T06:43:04.339Z,2.92
2023-07-29T06:45:31.590Z,3.08
2023-07-29T06:47:58.560Z,2.95
2023-07-29T06:50:25.947Z,3.00
2023-07-29T06:52:53.117Z,3.17
2023-07-29T06:55:20.304Z,3.15
2023-07-29T06:57:47.333Z,2.53
2023-07-29T07:00:14.650Z,3.05
2023-07-29T07:02:41.528Z,2.67
2023-07-29T07:05:08.806Z,2.80
2023-07-29T07:07:36.016Z,3.20
2023-07-29T07:10:03.385Z,2.95
2023-07-29T07:12:30.572Z,2.78
2023-07-29T07:14:57.754Z,2.53
2023-07-29T07:17:24.928Z,2.83
2023-07-29T07:19:52.255Z,3.00
2023-07-29T07:22:19.434Z,2.92
2023-07-29T07:24:46.378Z,2.92
2023-07-29T07:27:13.602Z,3.13
2023-07-29T07:29:40.863Z,3.42
2023-07-29T07:32:07.871Z,2.80
2023-07-29T07:34:35.627Z,3.00
2023-07-29T07:37:02.497Z,2.75
2023-07-29T07:39:29.644Z,2.85
2023-07-29T07:41:56.429Z,3.15
2023-07-29T07:44:23.250Z,2.97
2023-07-29T07:46:50.422Z,3.08
2023-07-29T07:49:17.632Z,2.97
2023-07-29T07:51:45.452Z,2.72
2023-07-29T07:54:12.630Z,3.08
2023-07-29T07:56:40.057Z,3.00
2023-07-29T07:59:07.360Z,3.30
2023-07-29T08:01:38.909Z,2.65
2023-07-29T08:04:06.413Z,2.90
2023-07-29T08:06:34.890Z,3.30
2023-07-29T08:09:02.576Z,2.92
2023-07-29T08:11:29.400Z,3.20
2023-07-29T08:13:56.575Z,3.40
2023-07-29T08:16:23.551Z,3.20
2023-07-29T08:18:50.801Z,3.00
2023-07-29T08:21:17.986Z,3.30
2023-07-29T08:23:45.159Z,3.20
2023-07-29T08:26:12.414Z,2.85
2023-07-29T08:28:40.964Z,2.90
2023-07-29T08:31:08.810Z,3.00
2023-07-29T08:33:35.926Z,2.60
2023-07-29T08:36:04.237Z,2.75
2023-07-29T08:38:31.474Z,2.83
2023-07-29T08:41:21.076Z,2.60
2023-07-29T08:44:00.503Z,2.47
2023-07-29T08:46:29.378Z,2.67
2023-07-29T08:48:56.988Z,2.95
2023-07-29T08:51:25.940Z,2.30
2023-07-29T08:53:53.550Z,2.45
2023-07-29T08:56:20.942Z,2.40
2023-07-29T08:58:49.143Z,2.45
2023-07-29T09:01:17.178Z,2.50
2023-07-29T09:03:44.514Z,2.35
2023-07-29T09:06:12.961Z,2.70
2023-07-29T09:08:40.065Z,2.53
2023-07-29T09:11:08.169Z,2.58
2023-07-29T09:13:35.886Z,2.65
2023-07-29T09:16:02.761Z,3.08
2023-07-29T09:18:29.998Z,2.92
2023-07-29T09:21:03.849Z,2.42
2023-07-29T09:23:42.210Z,2.90
2023-07-29T09:26:09.278Z,2.25
2023-07-29T09:28:38.948Z,2.15
2023-07-29T09:31:06.820Z,2.90
2023-07-29T09:33:37.998Z,2.40
2023-07-29T09:36:11.526Z,2.30
2023-07-29T09:38:39.359Z,2.20
2023-07-29T09:41:06.638Z,2.20
2023-07-29T09:43:35.442Z,2.08
2023-07-29T09:46:09.453Z,2.35
2023-07-29T09:48:38.763Z,2.13
2023-07-29T09:51:16.205Z,2.20
2023-07-29T09:53:47.550Z,2.40
2023-07-29T09:56:15.971Z,2.10
2023-07-29T09:58:46.614Z,2.45
2023-07-29T10:01:15.069Z,1.92
2023-07-29T10:03:43.433Z,2.40
2023-07-29T10:06:11.453Z,2.20
2023-07-29T10:08:40.301Z,2.20
2023-07-29T10:11:09.347Z,2.10
2023-07-29T10:13:37.507Z,2.03
2023-07-29T10:16:06.047Z,2.00
2023-07-29T10:18:34.497Z,1.90
2023-07-29T10:21:03.210Z,2.38
2023-07-29T10:23:43.358Z,2.05
2023-07-29T10:26:12.625Z,2.13
2023-07-29T10:28:46.352Z,1.92
2023-07-29T10:31:14.280Z,1.70
2023-07-29T10:33:41.360Z,1.65
2023-07-29T10:36:09.185Z,1.80
2023-07-29T10:38:36.541Z,1.60
2023-07-29T10:41:03.284Z,1.75
2023-07-29T10:43:41.121Z,1.92
2023-07-29T10:46:23.605Z,1.52
2023-07-29T10:48:58.341Z,1.48
2023-07-29T10:51:36.328Z,1.70
2023-07-29T10:54:12.681Z,1.63
2023-07-29T10:56:47.890Z,1.55
2023-07-29T10:59:18.597Z,1.70
2023-07-29T11:01:59.765Z,1.55
2023-07-29T11:04:34.753Z,1.80
2023-07-29T11:07:11.485Z,1.63
2023-07-29T11:10:07.866Z,1.63
2023-07-29T11:12:52.893Z,1.48
2023-07-29T11:15:27.190Z,1.40
2023-07-29T11:17:55.284Z,1.50
2023-07-29T11:20:34.477Z,1.70
2023-07-29T11:23:04.631Z,1.25
2023-07-29T11:25:34.497Z,1.90
2023-07-29T11:28:04.864Z,1.13
2023-07-29T11:30:34.829Z,1.92
2023-07-29T11:33:02.399Z,1.00
2023-07-29T11:35:29.640Z,0.70
2023-07-29T11:37:58.203Z,0.75
2023-07-29T11:40:26.047Z,0.98
2023-07-29T11:42:53.951Z,0.70
2023-07-29T11:45:25.668Z,0.82
2023-07-29T11:47:57.090Z,1.00
2023-07-29T11:50:24.523Z,1.17
2023-07-29T11:52:51.318Z,1.17
2023-07-29T11:55:20.175Z,1.27
2023-07-29T11:57:53.177Z,1.02
2023-07-29T12:00:21.840Z,1.20
2023-07-29T12:02:50.952Z,1.30
2023-07-29T12:05:22.161Z,1.50
2023-07-29T12:07:49.189Z,1.10
2023-07-29T12:10:16.515Z,1.40
2023-07-29T12:12:48.501Z,1.40
2023-07-29T12:15:25.991Z,1.05
2023-07-29T12:17:58.144Z,1.10
2023-07-29T12:20:26.826Z,1.17
2023-07-29T12:22:58.936Z,1.08
2023-07-29T12:25:28.034Z,1.00
2023-07-29T12:27:55.374Z,1.05
2023-07-29T12:30:24.149Z,0.90
2023-07-29T12:32:51.421Z,0.90
2023-07-29T12:35:18.722Z,1.33
2023-07-29T12:37:45.917Z,1.00
2023-07-29T12:40:24.134Z,1.50
2023-07-29T12:42:52.707Z,1.38
2023-07-29T12:45:20.257Z,1.50
2023-07-29T12:47:47.060Z,1.40
2023-07-29T12:50:14.375Z,1.40
2023-07-29T12:52:41.170Z,1.60
2023-07-29T12:55:09.928Z,1.15
2023-07-29T12:57:37.352Z,1.40
2023-07-29T13:00:05.328Z,1.40
2023-07-29T13:02:33.174Z,1.35
2023-07-29T13:05:00.519Z,1.40
2023-07-29T13:07:27.275Z,1.15
2023-07-29T13:09:54.451Z,1.40
2023-07-29T13:12:21.700Z,1.65
2023-07-29T13:14:48.861Z,1.65
2023-07-29T13:17:16.050Z,1.65
2023-07-29T13:19:43.849Z,2.47
2023-07-29T13:22:11.058Z,1.83
2023-07-29T13:24:38.439Z,1.42
2023-07-29T13:27:07.068Z,1.60
2023-07-29T13:29:34.238Z,1.50
2023-07-29T13:32:01.451Z,1.70
2023-07-29T13:34:28.771Z,1.50
2023-07-29T13:36:55.985Z,1.70
2023-07-29T13:39:23.213Z,1.80
2023-07-29T13:41:50.415Z,1.52
2023-07-29T13:44:17.565Z,1.80
2023-07-29T13:46:44.741Z,1.52
2023-07-29T13:49:12.448Z,1.80
2023-07-29T13:51:39.811Z,1.58
2023-07-29T13:54:06.966Z,1.77
2023-07-29T13:56:34.355Z,1.50
2023-07-29T13:59:01.730Z,1.50
2023-07-29T14:01:28.534Z,1.40
2023-07-29T14:03:55.722Z,1.58
2023-07-29T14:06:31.698Z,1.35
2023-07-29T14:09:10.060Z,1.30
2023-07-29T14:11:37.523Z,1.27
2023-07-29T14:14:04.856Z,1.58
2023-07-29T14:16:32.033Z,1.30
2023-07-29T14:18:58.918Z,1.13
2023-07-29T14:21:26.099Z,1.30
2023-07-29T14:23:54.368Z,1.02
2023-07-29T14:26:21.613Z,1.90
2023-07-29T14:28:48.771Z,1.10
2023-07-29T14:31:15.638Z,0.90
2023-07-29T14:33:42.806Z,1.00
2023-07-29T14:36:09.547Z,1.25
2023-07-29T14:38:37.717Z,1.10
2023-07-29T14:41:05.414Z,0.90
2023-07-29T14:43:32.775Z,1.20
2023-07-29T14:46:00.051Z,1.10
2023-07-29T14:48:26.869Z,1.00
2023-07-29T14:50:54.190Z,1.30
2023-07-29T14:53:21.380Z,1.10
2023-07-29T14:55:48.622Z,0.80
2023-07-29T14:58:15.823Z,1.40
2023-07-29T15:00:43.013Z,1.17
2023-07-29T15:03:10.319Z,1.15
2023-07-29T15:05:37.623Z,0.98
2023-07-29T15:08:04.459Z,1.20
2023-07-29T15:10:31.203Z,1.38
2023-07-29T15:12:58.426Z,1.27
2023-07-29T15:15:25.656Z,1.30
2023-07-29T15:17:52.876Z,1.20
2023-07-29T15:20:20.198Z,1.15
2023-07-29T15:22:47.368Z,1.10
2023-07-29T15:25:14.598Z,1.20
2023-07-29T15:27:41.829Z,1.10
2023-07-29T15:30:09.310Z,2.70
2023-07-29T15:32:36.564Z,2.15
2023-07-29T15:35:03.934Z,1.77
2023-07-29T15:37:31.132Z,1.70
2023-07-29T15:39:58.381Z,1.40
2023-07-29T15:42:25.708Z,1.20
2023-07-29T15:44:53.785Z,1.40
2023-07-29T15:47:20.922Z,1.38
2023-07-29T15:49:48.167Z,1.38
2023-07-29T15:52:15.920Z,1.48
2023-07-29T15:54:44.118Z,1.65
2023-07-29T15:57:11.702Z,1.30
2023-07-29T15:59:38.911Z,1.27
2023-07-29T16:02:06.590Z,1.42
2023-07-29T16:04:33.397Z,1.00
2023-07-29T16:07:00.161Z,1.17
2023-07-29T16:09:27.602Z,1.40
2023-07-29T16:11:54.447Z,1.30
2023-07-29T16:14:21.224Z,1.50
2023-07-29T16:16:49.166Z,1.02
2023-07-29T16:19:25.849Z,1.30
2023-07-29T16:21:53.444Z,1.38
2023-07-29T16:24:20.980Z,1.30
2023-07-29T16:26:47.976Z,1.55
2023-07-29T16:29:15.552Z,1.30
2023-07-29T16:31:42.746Z,1.70
2023-07-29T16:34:10.486Z,1.40
2023-07-29T16:36:37.878Z,1.50
2023-07-29T16:39:04.889Z,2.33
2023-07-29T16:42:02.857Z,1.88
2023-07-29T16:44:18.921Z,1.83
2023-07-29T16:46:46.523Z,1.80
2023-07-29T16:49:21.749Z,1.98
2023-07-29T16:51:51.392Z,1.80
2023-07-29T16:54:20.118Z,1.88
2023-07-29T16:56:50.173Z,2.00
2023-07-29T16:59:17.664Z,2.08
2023-07-29T17:01:44.967Z,1.83
2023-07-29T17:04:12.201Z,2.10
2023-07-29T17:06:39.204Z,2.22
2023-07-29T17:09:07.410Z,3.20
2023-07-29T17:11:34.246Z,3.35
2023-07-29T17:14:01.492Z,3.70
2023-07-29T17:16:28.726Z,4.50
2023-07-29T17:18:55.928Z,3.95
2023-07-29T17:21:22.691Z,3.88
2023-07-29T17:23:49.842Z,3.70
2023-07-29T17:26:17.000Z,3.53
2023-07-29T17:28:45.307Z,3.30
2023-07-29T17:31:12.476Z,4.40
2023-07-29T17:33:39.515Z,3.50
2023-07-29T17:36:07.281Z,3.33
2023-07-29T17:38:34.437Z,3.17
2023-07-29T17:41:03.326Z,4.60
2023-07-29T17:43:30.549Z,3.38
2023-07-29T17:45:57.350Z,3.60
2023-07-29T17:48:24.665Z,2.85
2023-07-29T17:50:51.484Z,3.20
2023-07-29T17:53:18.810Z,3.10
2023-07-29T17:55:45.969Z,2.72
2023-07-29T17:58:13.636Z,2.70
2023-07-29T18:00:41.103Z,2.90
2023-07-29T18:03:08.483Z,3.30
2023-07-29T18:05:36.577Z,2.90
2023-07-29T18:08:03.880Z,2.95
2023-07-29T18:10:32.082Z,2.72
2023-07-29T18:13:00.002Z,2.90
2023-07-29T18:15:27.005Z,2.70
2023-07-29T18:17:54.394Z,3.10
2023-07-29T18:20:21.822Z,2.85
2023-07-29T18:22:49.620Z,2.80
2023-07-29T18:25:17.122Z,2.40
2023-07-29T18:27:44.358Z,2.88
2023-07-29T18:30:14.417Z,2.63
2023-07-29T18:32:41.263Z,2.65
2023-07-29T18:35:10.051Z,2.70
2023-07-29T18:37:37.327Z,2.80
2023-07-29T18:40:04.783Z,3.17
2023-07-29T18:42:31.685Z,3.63
2023-07-29T18:44:58.842Z,3.70
2023-07-29T18:47:26.030Z,3.97
2023-07-29T18:49:54.028Z,3.42
2023-07-29T18:52:20.828Z,3.65
2023-07-29T18:54:47.998Z,3.95
2023-07-29T18:57:15.215Z,4.00
2023-07-29T18:59:42.382Z,5.97
2023-07-29T19:02:09.248Z,5.03
2023-07-29T19:04:36.673Z,3.72
2023-07-29T19:07:03.654Z,3.67
2023-07-29T19:09:30.829Z,3.15
2023-07-29T19:11:57.991Z,3.40
2023-07-29T19:14:24.929Z,2.80
2023-07-29T19:16:52.242Z,3.22
2023-07-29T19:19:19.064Z,2.92
2023-07-29T19:21:45.828Z,3.53
2023-07-29T19:24:12.974Z,3.90
2023-07-29T19:26:40.072Z,4.10
2023-07-29T19:29:07.502Z,3.70
2023-07-29T19:31:34.713Z,4.70
2023-07-29T19:34:01.531Z,3.88
2023-07-29T19:36:33.170Z,3.90
2023-07-29T19:39:00.201Z,3.65
2023-07-29T19:41:28.393Z,3.60
2023-07-29T19:44:00.503Z,3.20
2023-07-29T19:46:38.122Z,3.10
2023-07-29T19:49:06.628Z,3.20
2023-07-29T19:51:33.400Z,3.20
2023-07-29T19:54:00.554Z,2.97
2023-07-29T19:56:27.332Z,3.38
2023-07-29T19:58:54.519Z,3.33
2023-07-29T20:01:21.348Z,3.75
2023-07-29T20:03:48.294Z,3.38
2023-07-29T20:06:15.078Z,3.13
2023-07-29T20:08:43.472Z,3.15
2023-07-29T20:11:10.664Z,3.45
2023-07-29T20:13:37.459Z,3.13
2023-07-29T20:16:04.763Z,3.30
2023-07-29T20:18:31.972Z,3.67
2023-07-29T20:20:59.196Z,3.63
2023-07-29T20:23:26.500Z,4.47
2023-07-29T20:25:53.249Z,3.72
2023-07-29T20:28:22.206Z,3.97
2023-07-29T20:30:59.146Z,4.05
2023-07-29T20:33:27.188Z,3.75
2023-07-29T20:35:59.791Z,3.90
2023-07-29T20:38:27.320Z,4.30
2023-07-29T20:40:56.725Z,4.50
2023-07-29T20:43:24.779Z,4.20
2023-07-29T20:45:55.503Z,4.57
2023-07-29T20:48:22.796Z,4.57
2023-07-29T20:50:50.043Z,4.80
2023-07-29T20:53:19.732Z,4.70
2023-07-29T20:55:46.994Z,4.40
2023-07-29T20:58:14.427Z,4.32
2023-07-29T21:00:41.201Z,4.85
2023-07-29T21:03:08.500Z,6.53
2023-07-29T21:05:35.788Z,8.68
2023-07-29T21:08:03.012Z,9.50
2023-07-29T21:10:31.554Z,9.77
2023-07-29T21:12:58.335Z,11.13
2023-07-29T21:15:25.546Z,11.18
2023-07-29T21:17:52.384Z,10.07
2023-07-29T21:20:19.775Z,8.05
2023-07-29T21:22:46.586Z,7.88
2023-07-29T21:25:13.776Z,7.15
2023-07-29T21:27:40.547Z,5.00
2023-07-29T21:30:08.394Z,3.83
2023-07-29T21:32:35.182Z,4.28
2023-07-29T21:35:02.465Z,3.78
2023-07-29T21:37:35.725Z,4.32
2023-07-29T21:40:04.306Z,3.53
2023-07-29T21:42:32.867Z,3.63
2023-07-29T21:45:00.150Z,4.10
2023-07-29T21:47:27.020Z,4.72
2023-07-29T21:49:55.154Z,3.83
2023-07-29T21:52:22.524Z,3.97
2023-07-29T21:54:50.088Z,3.70
2023-07-29T21:57:17.554Z,3.40
2023-07-29T21:59:44.725Z,4.03
2023-07-29T22:02:12.116Z,4.07
2023-07-29T22:04:39.667Z,4.60
2023-07-29T22:07:07.196Z,3.55
2023-07-29T22:09:34.513Z,3.75
2023-07-29T22:12:01.433Z,4.10
2023-07-29T22:14:28.802Z,4.75
2023-07-29T22:16:55.632Z,3.92
2023-07-29T22:19:22.788Z,4.00
2023-07-29T22:21:52.605Z,4.25
2023-07-29T22:24:20.412Z,4.00
2023-07-29T22:26:47.997Z,3.60
2023-07-29T22:29:15.546Z,3.25
2023-07-29T22:31:42.801Z,4.28
2023-07-29T22:34:10.032Z,4.32
2023-07-29T22:36:36.777Z,3.97
2023-07-29T22:39:04.041Z,3.88
2023-07-29T22:41:30.824Z,4.00
2023-07-29T22:43:58.031Z,3.80
2023-07-29T22:46:24.818Z,4.20
2023-07-29T22:48:51.788Z,3.35
2023-07-29T22:51:18.564Z,3.70
2023-07-29T22:53:45.317Z,3.90
2023-07-29T22:56:12.742Z,3.83
2023-07-29T22:58:40.008Z,3.88
2023-07-29T23:01:07.231Z,3.80
2023-07-29T23:03:34.567Z,3.80
2023-07-29T23:06:01.539Z,4.03
2023-07-29T23:08:28.789Z,3.53
2023-07-29T23:10:55.713Z,4.63
2023-07-29T23:13:22.902Z,4.15
2023-07-29T23:15:52.282Z,4.10
2023-07-29T23:18:19.239Z,3.83
2023-07-29T23:20:46.416Z,4.00
2023-07-29T23:23:13.576Z,4.10
2023-07-29T23:25:40.747Z,3.72
2023-07-29T23:28:07.549Z,3.80
2023-07-29T23:30:34.771Z,4.07
2023-07-29T23:33:02.005Z,3.80
2023-07-29T23:35:28.924Z,3.80
2023-07-29T23:37:56.259Z,4.13
2023-07-29T23:40:23.179Z,3.97
2023-07-29T23:42:50.344Z,4.30
2023-07-29T23:45:17.610Z,3.67
2023-07-29T23:47:44.966Z,4.05
2023-07-29T23:50:12.255Z,4.18
2023-07-29T23:52:39.037Z,3.85
2023-07-29T23:55:06.668Z,4.20
2023-07-29T23:57:33.415Z,4.13
